sensor_id;sensor_type;location;lat;lon;timestamp;P1;durP1;ratioP1;P2;durP2;ratioP2
65174;SDS011;51761;42.126;24.752;2024-01-30T00:01:49;18.40;;;7.28;;
65174;SDS011;51761;42.126;24.752;2024-01-30T00:04:15;20.75;;;7.53;;
65174;SDS011;51761;42.126;24.752;2024-01-30T00:06:41;16.63;;;7.60;;
65174;SDS011;51761;42.126;24.752;2024-01-30T00:09:07;14.05;;;6.75;;
65174;SDS011;51761;42.126;24.752;2024-01-30T00:11:32;13.70;;;6.75;;
65174;SDS011;51761;42.126;24.752;2024-01-30T00:13:58;13.90;;;6.00;;
65174;SDS011;51761;42.126;24.752;2024-01-30T00:16:23;16.65;;;6.38;;
65174;SDS011;51761;42.126;24.752;2024-01-30T00:18:49;25.85;;;7.93;;
65174;SDS011;51761;42.126;24.752;2024-01-30T00:21:15;20.08;;;7.82;;
65174;SDS011;51761;42.126;24.752;2024-01-30T00:23:40;20.60;;;7.90;;
65174;SDS011;51761;42.126;24.752;2024-01-30T00:26:05;15.80;;;6.72;;
65174;SDS011;51761;42.126;24.752;2024-01-30T00:28:31;15.30;;;7.57;;
65174;SDS011;51761;42.126;24.752;2024-01-30T00:30:56;18.95;;;7.63;;
65174;SDS011;51761;42.126;24.752;2024-01-30T00:33:21;16.95;;;7.53;;
65174;SDS011;51761;42.126;24.752;2024-01-30T00:35:47;16.77;;;8.02;;
65174;SDS011;51761;42.126;24.752;2024-01-30T00:38:12;16.70;;;7.00;;
65174;SDS011;51761;42.126;24.752;2024-01-30T00:40:37;18.35;;;7.60;;
65174;SDS011;51761;42.126;24.752;2024-01-30T00:43:03;20.52;;;7.82;;
65174;SDS011;51761;42.126;24.752;2024-01-30T00:45:28;16.30;;;6.95;;
65174;SDS011;51761;42.126;24.752;2024-01-30T00:47:53;13.07;;;6.65;;
65174;SDS011;51761;42.126;24.752;2024-01-30T00:50:19;17.30;;;7.60;;
65174;SDS011;51761;42.126;24.752;2024-01-30T00:52:44;18.10;;;7.90;;
65174;SDS011;51761;42.126;24.752;2024-01-30T00:55:10;21.17;;;8.13;;
65174;SDS011;51761;42.126;24.752;2024-01-30T00:57:36;18.40;;;7.88;;
65174;SDS011;51761;42.126;24.752;2024-01-30T01:00:01;19.35;;;7.60;;
65174;SDS011;51761;42.126;24.752;2024-01-30T01:02:26;16.95;;;7.47;;
65174;SDS011;51761;42.126;24.752;2024-01-30T01:04:52;17.85;;;8.40;;
65174;SDS011;51761;42.126;24.752;2024-01-30T01:07:17;19.58;;;7.55;;
65174;SDS011;51761;42.126;24.752;2024-01-30T01:09:42;18.13;;;7.88;;
65174;SDS011;51761;42.126;24.752;2024-01-30T01:12:08;14.98;;;7.13;;
65174;SDS011;51761;42.126;24.752;2024-01-30T01:14:33;17.63;;;8.40;;
65174;SDS011;51761;42.126;24.752;2024-01-30T01:16:58;17.90;;;7.93;;
65174;SDS011;51761;42.126;24.752;2024-01-30T01:19:23;15.60;;;7.55;;
65174;SDS011;51761;42.126;24.752;2024-01-30T01:21:49;19.58;;;7.97;;
65174;SDS011;51761;42.126;24.752;2024-01-30T01:24:14;18.90;;;7.00;;
65174;SDS011;51761;42.126;24.752;2024-01-30T01:26:39;16.33;;;7.05;;
65174;SDS011;51761;42.126;24.752;2024-01-30T01:29:08;13.88;;;6.22;;
65174;SDS011;51761;42.126;24.752;2024-01-30T01:31:37;19.08;;;7.25;;
65174;SDS011;51761;42.126;24.752;2024-01-30T01:34:12;20.65;;;7.90;;
65174;SDS011;51761;42.126;24.752;2024-01-30T01:36:37;18.40;;;8.35;;
65174;SDS011;51761;42.126;24.752;2024-01-30T01:39:03;20.88;;;9.07;;
65174;SDS011;51761;42.126;24.752;2024-01-30T01:41:32;14.82;;;7.75;;
65174;SDS011;51761;42.126;24.752;2024-01-30T01:43:58;20.35;;;8.50;;
65174;SDS011;51761;42.126;24.752;2024-01-30T01:46:26;24.40;;;9.05;;
65174;SDS011;51761;42.126;24.752;2024-01-30T01:48:51;20.85;;;8.20;;
65174;SDS011;51761;42.126;24.752;2024-01-30T01:51:16;21.10;;;9.00;;
65174;SDS011;51761;42.126;24.752;2024-01-30T01:53:42;15.20;;;7.15;;
65174;SDS011;51761;42.126;24.752;2024-01-30T01:56:07;20.02;;;8.00;;
65174;SDS011;51761;42.126;24.752;2024-01-30T01:58:33;21.05;;;8.95;;
65174;SDS011;51761;42.126;24.752;2024-01-30T02:00:58;13.48;;;7.32;;
65174;SDS011;51761;42.126;24.752;2024-01-30T02:03:24;19.33;;;7.95;;
65174;SDS011;51761;42.126;24.752;2024-01-30T02:05:52;14.80;;;7.32;;
65174;SDS011;51761;42.126;24.752;2024-01-30T02:08:17;23.33;;;8.25;;
65174;SDS011;51761;42.126;24.752;2024-01-30T02:10:43;19.77;;;7.60;;
65174;SDS011;51761;42.126;24.752;2024-01-30T02:13:08;18.30;;;7.70;;
65174;SDS011;51761;42.126;24.752;2024-01-30T02:15:33;16.42;;;7.50;;
65174;SDS011;51761;42.126;24.752;2024-01-30T02:17:59;13.50;;;7.03;;
65174;SDS011;51761;42.126;24.752;2024-01-30T02:20:24;13.73;;;6.53;;
65174;SDS011;51761;42.126;24.752;2024-01-30T02:22:51;16.23;;;6.68;;
65174;SDS011;51761;42.126;24.752;2024-01-30T02:25:17;18.65;;;7.82;;
65174;SDS011;51761;42.126;24.752;2024-01-30T02:27:43;18.33;;;8.20;;
65174;SDS011;51761;42.126;24.752;2024-01-30T02:30:08;15.48;;;8.07;;
65174;SDS011;51761;42.126;24.752;2024-01-30T02:32:33;18.60;;;8.05;;
65174;SDS011;51761;42.126;24.752;2024-01-30T02:34:59;17.25;;;8.00;;
65174;SDS011;51761;42.126;24.752;2024-01-30T02:37:24;18.75;;;8.38;;
65174;SDS011;51761;42.126;24.752;2024-01-30T02:39:49;17.45;;;8.55;;
65174;SDS011;51761;42.126;24.752;2024-01-30T02:42:15;18.20;;;8.27;;
65174;SDS011;51761;42.126;24.752;2024-01-30T02:44:40;19.92;;;8.68;;
65174;SDS011;51761;42.126;24.752;2024-01-30T02:47:05;19.60;;;9.23;;
65174;SDS011;51761;42.126;24.752;2024-01-30T02:49:31;21.30;;;8.43;;
65174;SDS011;51761;42.126;24.752;2024-01-30T02:51:57;18.67;;;8.27;;
65174;SDS011;51761;42.126;24.752;2024-01-30T02:54:22;18.70;;;8.80;;
65174;SDS011;51761;42.126;24.752;2024-01-30T02:56:47;16.40;;;8.48;;
65174;SDS011;51761;42.126;24.752;2024-01-30T02:59:13;21.58;;;8.43;;
65174;SDS011;51761;42.126;24.752;2024-01-30T03:01:42;19.33;;;9.02;;
65174;SDS011;51761;42.126;24.752;2024-01-30T03:04:08;18.75;;;8.43;;
65174;SDS011;51761;42.126;24.752;2024-01-30T03:06:33;22.23;;;10.00;;
65174;SDS011;51761;42.126;24.752;2024-01-30T03:08:58;23.05;;;9.55;;
65174;SDS011;51761;42.126;24.752;2024-01-30T03:11:24;17.48;;;8.63;;
65174;SDS011;51761;42.126;24.752;2024-01-30T03:13:49;18.70;;;8.52;;
65174;SDS011;51761;42.126;24.752;2024-01-30T03:16:14;46.90;;;18.67;;
65174;SDS011;51761;42.126;24.752;2024-01-30T03:18:40;35.13;;;13.88;;
65174;SDS011;51761;42.126;24.752;2024-01-30T03:21:05;33.17;;;13.93;;
65174;SDS011;51761;42.126;24.752;2024-01-30T03:23:30;41.13;;;17.00;;
65174;SDS011;51761;42.126;24.752;2024-01-30T03:25:57;41.53;;;13.63;;
65174;SDS011;51761;42.126;24.752;2024-01-30T03:28:22;35.85;;;14.50;;
65174;SDS011;51761;42.126;24.752;2024-01-30T03:30:48;25.63;;;11.57;;
65174;SDS011;51761;42.126;24.752;2024-01-30T03:33:13;22.25;;;10.57;;
65174;SDS011;51761;42.126;24.752;2024-01-30T03:35:38;22.70;;;9.90;;
65174;SDS011;51761;42.126;24.752;2024-01-30T03:38:04;22.83;;;9.65;;
65174;SDS011;51761;42.126;24.752;2024-01-30T03:40:29;25.60;;;11.20;;
65174;SDS011;51761;42.126;24.752;2024-01-30T03:42:54;21.15;;;10.00;;
65174;SDS011;51761;42.126;24.752;2024-01-30T03:45:20;21.25;;;10.18;;
65174;SDS011;51761;42.126;24.752;2024-01-30T03:47:45;21.02;;;10.02;;
65174;SDS011;51761;42.126;24.752;2024-01-30T03:50:10;24.15;;;10.35;;
65174;SDS011;51761;42.126;24.752;2024-01-30T03:52:36;19.27;;;9.43;;
65174;SDS011;51761;42.126;24.752;2024-01-30T03:55:01;20.98;;;10.68;;
65174;SDS011;51761;42.126;24.752;2024-01-30T03:57:26;30.05;;;10.85;;
65174;SDS011;51761;42.126;24.752;2024-01-30T03:59:52;21.98;;;10.02;;
65174;SDS011;51761;42.126;24.752;2024-01-30T04:02:18;23.35;;;10.85;;
65174;SDS011;51761;42.126;24.752;2024-01-30T04:04:43;21.92;;;10.40;;
65174;SDS011;51761;42.126;24.752;2024-01-30T04:07:09;21.58;;;10.32;;
65174;SDS011;51761;42.126;24.752;2024-01-30T04:09:34;28.17;;;11.63;;
65174;SDS011;51761;42.126;24.752;2024-01-30T04:11:59;23.17;;;10.10;;
65174;SDS011;51761;42.126;24.752;2024-01-30T04:14:25;25.42;;;10.85;;
65174;SDS011;51761;42.126;24.752;2024-01-30T04:16:50;22.55;;;10.25;;
65174;SDS011;51761;42.126;24.752;2024-01-30T04:19:15;29.05;;;11.32;;
65174;SDS011;51761;42.126;24.752;2024-01-30T04:21:41;25.58;;;10.52;;
65174;SDS011;51761;42.126;24.752;2024-01-30T04:24:06;26.00;;;11.85;;
65174;SDS011;51761;42.126;24.752;2024-01-30T04:26:31;23.63;;;10.60;;
65174;SDS011;51761;42.126;24.752;2024-01-30T04:28:57;23.90;;;9.75;;
65174;SDS011;51761;42.126;24.752;2024-01-30T04:31:22;20.20;;;9.60;;
65174;SDS011;51761;42.126;24.752;2024-01-30T04:33:47;23.70;;;11.10;;
65174;SDS011;51761;42.126;24.752;2024-01-30T04:36:13;26.52;;;10.48;;
65174;SDS011;51761;42.126;24.752;2024-01-30T04:38:38;31.25;;;11.70;;
65174;SDS011;51761;42.126;24.752;2024-01-30T04:41:04;23.95;;;11.35;;
65174;SDS011;51761;42.126;24.752;2024-01-30T04:43:29;25.13;;;11.20;;
65174;SDS011;51761;42.126;24.752;2024-01-30T04:45:55;28.73;;;13.27;;
65174;SDS011;51761;42.126;24.752;2024-01-30T04:48:21;32.08;;;12.27;;
65174;SDS011;51761;42.126;24.752;2024-01-30T04:50:46;25.05;;;12.07;;
65174;SDS011;51761;42.126;24.752;2024-01-30T04:53:11;32.15;;;13.27;;
65174;SDS011;51761;42.126;24.752;2024-01-30T04:55:37;28.75;;;12.27;;
65174;SDS011;51761;42.126;24.752;2024-01-30T04:58:02;32.38;;;14.25;;
65174;SDS011;51761;42.126;24.752;2024-01-30T05:00:27;43.08;;;18.20;;
65174;SDS011;51761;42.126;24.752;2024-01-30T05:02:54;29.50;;;12.18;;
65174;SDS011;51761;42.126;24.752;2024-01-30T05:05:19;30.83;;;12.77;;
65174;SDS011;51761;42.126;24.752;2024-01-30T05:07:45;32.53;;;13.05;;
65174;SDS011;51761;42.126;24.752;2024-01-30T05:10:11;35.08;;;12.73;;
65174;SDS011;51761;42.126;24.752;2024-01-30T05:12:36;38.33;;;14.75;;
65174;SDS011;51761;42.126;24.752;2024-01-30T05:15:01;39.65;;;13.32;;
65174;SDS011;51761;42.126;24.752;2024-01-30T05:17:27;43.13;;;13.07;;
65174;SDS011;51761;42.126;24.752;2024-01-30T05:19:52;32.28;;;13.55;;
65174;SDS011;51761;42.126;24.752;2024-01-30T05:22:17;41.40;;;13.70;;
65174;SDS011;51761;42.126;24.752;2024-01-30T05:24:43;37.63;;;14.43;;
65174;SDS011;51761;42.126;24.752;2024-01-30T05:27:09;32.67;;;14.95;;
65174;SDS011;51761;42.126;24.752;2024-01-30T05:29:34;34.47;;;13.77;;
65174;SDS011;51761;42.126;24.752;2024-01-30T05:32:00;37.58;;;14.95;;
65174;SDS011;51761;42.126;24.752;2024-01-30T05:34:25;40.13;;;16.17;;
65174;SDS011;51761;42.126;24.752;2024-01-30T05:36:50;51.13;;;17.67;;
65174;SDS011;51761;42.126;24.752;2024-01-30T05:39:15;41.90;;;16.08;;
65174;SDS011;51761;42.126;24.752;2024-01-30T05:41:41;39.03;;;15.32;;
65174;SDS011;51761;42.126;24.752;2024-01-30T05:44:06;39.13;;;14.35;;
65174;SDS011;51761;42.126;24.752;2024-01-30T05:46:32;38.88;;;15.38;;
65174;SDS011;51761;42.126;24.752;2024-01-30T05:48:57;31.50;;;16.00;;
65174;SDS011;51761;42.126;24.752;2024-01-30T05:51:22;37.03;;;15.65;;
65174;SDS011;51761;42.126;24.752;2024-01-30T05:53:47;42.78;;;15.90;;
65174;SDS011;51761;42.126;24.752;2024-01-30T05:56:13;33.25;;;15.48;;
65174;SDS011;51761;42.126;24.752;2024-01-30T05:58:38;39.15;;;14.38;;
65174;SDS011;51761;42.126;24.752;2024-01-30T06:01:07;36.65;;;14.10;;
65174;SDS011;51761;42.126;24.752;2024-01-30T06:03:33;31.50;;;13.25;;
65174;SDS011;51761;42.126;24.752;2024-01-30T06:05:58;27.77;;;13.52;;
65174;SDS011;51761;42.126;24.752;2024-01-30T06:08:24;40.83;;;14.20;;
65174;SDS011;51761;42.126;24.752;2024-01-30T06:10:49;37.88;;;14.38;;
65174;SDS011;51761;42.126;24.752;2024-01-30T06:13:14;25.08;;;13.10;;
65174;SDS011;51761;42.126;24.752;2024-01-30T06:15:40;38.50;;;14.02;;
65174;SDS011;51761;42.126;24.752;2024-01-30T06:18:05;46.33;;;15.65;;
65174;SDS011;51761;42.126;24.752;2024-01-30T06:20:30;35.92;;;14.10;;
65174;SDS011;51761;42.126;24.752;2024-01-30T06:22:56;35.10;;;15.05;;
65174;SDS011;51761;42.126;24.752;2024-01-30T06:25:21;33.83;;;14.13;;
65174;SDS011;51761;42.126;24.752;2024-01-30T06:27:46;41.53;;;17.73;;
65174;SDS011;51761;42.126;24.752;2024-01-30T06:30:12;43.83;;;15.15;;
65174;SDS011;51761;42.126;24.752;2024-01-30T06:32:37;39.80;;;16.70;;
65174;SDS011;51761;42.126;24.752;2024-01-30T06:35:04;40.20;;;15.55;;
65174;SDS011;51761;42.126;24.752;2024-01-30T06:37:30;44.60;;;16.45;;
65174;SDS011;51761;42.126;24.752;2024-01-30T06:39:56;40.88;;;16.10;;
65174;SDS011;51761;42.126;24.752;2024-01-30T06:42:21;38.33;;;15.20;;
65174;SDS011;51761;42.126;24.752;2024-01-30T06:44:46;29.90;;;14.70;;
65174;SDS011;51761;42.126;24.752;2024-01-30T06:47:12;28.50;;;14.75;;
65174;SDS011;51761;42.126;24.752;2024-01-30T06:49:37;33.97;;;14.07;;
65174;SDS011;51761;42.126;24.752;2024-01-30T06:52:06;31.67;;;14.02;;
65174;SDS011;51761;42.126;24.752;2024-01-30T06:54:31;28.45;;;13.43;;
65174;SDS011;51761;42.126;24.752;2024-01-30T06:56:57;28.20;;;13.25;;
65174;SDS011;51761;42.126;24.752;2024-01-30T06:59:23;32.38;;;14.68;;
65174;SDS011;51761;42.126;24.752;2024-01-30T07:01:48;38.55;;;16.02;;
65174;SDS011;51761;42.126;24.752;2024-01-30T07:04:14;33.92;;;15.48;;
65174;SDS011;51761;42.126;24.752;2024-01-30T07:06:39;36.33;;;15.15;;
65174;SDS011;51761;42.126;24.752;2024-01-30T07:09:04;39.78;;;14.52;;
65174;SDS011;51761;42.126;24.752;2024-01-30T07:11:30;45.10;;;14.80;;
65174;SDS011;51761;42.126;24.752;2024-01-30T07:13:55;27.25;;;15.05;;
65174;SDS011;51761;42.126;24.752;2024-01-30T07:16:21;30.88;;;14.02;;
65174;SDS011;51761;42.126;24.752;2024-01-30T07:18:47;46.90;;;15.20;;
65174;SDS011;51761;42.126;24.752;2024-01-30T07:21:12;40.00;;;15.00;;
65174;SDS011;51761;42.126;24.752;2024-01-30T07:23:38;30.95;;;14.30;;
65174;SDS011;51761;42.126;24.752;2024-01-30T07:26:07;36.63;;;15.13;;
65174;SDS011;51761;42.126;24.752;2024-01-30T07:28:33;28.25;;;14.27;;
65174;SDS011;51761;42.126;24.752;2024-01-30T07:30:58;32.03;;;14.13;;
65174;SDS011;51761;42.126;24.752;2024-01-30T07:33:24;31.55;;;14.90;;
65174;SDS011;51761;42.126;24.752;2024-01-30T07:35:49;37.58;;;14.98;;
65174;SDS011;51761;42.126;24.752;2024-01-30T07:38:14;34.00;;;14.30;;
65174;SDS011;51761;42.126;24.752;2024-01-30T07:40:40;27.95;;;13.35;;
65174;SDS011;51761;42.126;24.752;2024-01-30T07:43:06;26.05;;;13.35;;
65174;SDS011;51761;42.126;24.752;2024-01-30T07:45:31;26.75;;;12.70;;
65174;SDS011;51761;42.126;24.752;2024-01-30T07:47:58;37.88;;;13.55;;
65174;SDS011;51761;42.126;24.752;2024-01-30T07:50:25;24.88;;;12.05;;
65174;SDS011;51761;42.126;24.752;2024-01-30T07:52:50;26.20;;;12.75;;
65174;SDS011;51761;42.126;24.752;2024-01-30T07:55:19;26.42;;;12.35;;
65174;SDS011;51761;42.126;24.752;2024-01-30T07:57:45;27.88;;;12.70;;
65174;SDS011;51761;42.126;24.752;2024-01-30T08:00:11;24.67;;;11.35;;
65174;SDS011;51761;42.126;24.752;2024-01-30T08:02:36;29.65;;;11.82;;
65174;SDS011;51761;42.126;24.752;2024-01-30T08:05:02;27.52;;;12.15;;
65174;SDS011;51761;42.126;24.752;2024-01-30T08:07:27;32.08;;;12.25;;
65174;SDS011;51761;42.126;24.752;2024-01-30T08:09:54;24.27;;;10.07;;
65174;SDS011;51761;42.126;24.752;2024-01-30T08:12:20;28.50;;;11.45;;
65174;SDS011;51761;42.126;24.752;2024-01-30T08:14:45;35.33;;;12.13;;
65174;SDS011;51761;42.126;24.752;2024-01-30T08:17:10;26.23;;;10.95;;
65174;SDS011;51761;42.126;24.752;2024-01-30T08:19:36;23.75;;;10.43;;
65174;SDS011;51761;42.126;24.752;2024-01-30T08:22:01;25.02;;;11.00;;
65174;SDS011;51761;42.126;24.752;2024-01-30T08:24:26;24.98;;;11.20;;
65174;SDS011;51761;42.126;24.752;2024-01-30T08:26:51;25.10;;;11.98;;
65174;SDS011;51761;42.126;24.752;2024-01-30T08:29:17;24.80;;;10.30;;
65174;SDS011;51761;42.126;24.752;2024-01-30T08:31:42;21.00;;;10.10;;
65174;SDS011;51761;42.126;24.752;2024-01-30T08:34:07;24.15;;;10.55;;
65174;SDS011;51761;42.126;24.752;2024-01-30T08:36:33;17.50;;;8.27;;
65174;SDS011;51761;42.126;24.752;2024-01-30T08:38:58;21.60;;;9.02;;
65174;SDS011;51761;42.126;24.752;2024-01-30T08:41:23;22.15;;;9.02;;
65174;SDS011;51761;42.126;24.752;2024-01-30T08:43:49;18.70;;;8.98;;
65174;SDS011;51761;42.126;24.752;2024-01-30T08:46:17;22.35;;;10.27;;
65174;SDS011;51761;42.126;24.752;2024-01-30T08:48:42;25.95;;;9.23;;
65174;SDS011;51761;42.126;24.752;2024-01-30T08:51:07;21.08;;;9.13;;
65174;SDS011;51761;42.126;24.752;2024-01-30T08:53:33;28.27;;;9.52;;
65174;SDS011;51761;42.126;24.752;2024-01-30T08:55:59;23.40;;;9.90;;
65174;SDS011;51761;42.126;24.752;2024-01-30T08:58:24;22.55;;;9.20;;
65174;SDS011;51761;42.126;24.752;2024-01-30T09:00:49;29.42;;;10.40;;
65174;SDS011;51761;42.126;24.752;2024-01-30T09:03:16;21.95;;;8.45;;
65174;SDS011;51761;42.126;24.752;2024-01-30T09:05:42;19.75;;;8.85;;
65174;SDS011;51761;42.126;24.752;2024-01-30T09:08:07;15.85;;;7.15;;
65174;SDS011;51761;42.126;24.752;2024-01-30T09:10:32;18.25;;;6.90;;
65174;SDS011;51761;42.126;24.752;2024-01-30T09:12:58;16.02;;;6.65;;
65174;SDS011;51761;42.126;24.752;2024-01-30T09:15:23;15.43;;;6.35;;
65174;SDS011;51761;42.126;24.752;2024-01-30T09:17:48;13.45;;;7.15;;
65174;SDS011;51761;42.126;24.752;2024-01-30T09:20:13;26.58;;;9.88;;
65174;SDS011;51761;42.126;24.752;2024-01-30T09:22:39;16.40;;;7.97;;
65174;SDS011;51761;42.126;24.752;2024-01-30T09:25:04;17.63;;;7.53;;
65174;SDS011;51761;42.126;24.752;2024-01-30T09:27:30;18.65;;;9.57;;
65174;SDS011;51761;42.126;24.752;2024-01-30T09:29:56;20.50;;;8.10;;
65174;SDS011;51761;42.126;24.752;2024-01-30T09:32:21;20.45;;;8.95;;
65174;SDS011;51761;42.126;24.752;2024-01-30T09:34:46;23.77;;;9.63;;
65174;SDS011;51761;42.126;24.752;2024-01-30T09:37:12;25.48;;;9.57;;
65174;SDS011;51761;42.126;24.752;2024-01-30T09:39:37;28.20;;;10.27;;
65174;SDS011;51761;42.126;24.752;2024-01-30T09:42:23;22.58;;;10.00;;
65174;SDS011;51761;42.126;24.752;2024-01-30T09:44:51;20.88;;;10.18;;
65174;SDS011;51761;42.126;24.752;2024-01-30T09:47:17;25.83;;;11.43;;
65174;SDS011;51761;42.126;24.752;2024-01-30T09:49:43;27.70;;;12.43;;
65174;SDS011;51761;42.126;24.752;2024-01-30T09:52:08;27.23;;;13.27;;
65174;SDS011;51761;42.126;24.752;2024-01-30T09:54:33;29.85;;;12.48;;
65174;SDS011;51761;42.126;24.752;2024-01-30T09:56:59;28.10;;;11.77;;
65174;SDS011;51761;42.126;24.752;2024-01-30T09:59:24;23.73;;;10.63;;
65174;SDS011;51761;42.126;24.752;2024-01-30T10:01:50;20.00;;;9.70;;
65174;SDS011;51761;42.126;24.752;2024-01-30T10:04:16;26.75;;;10.23;;
65174;SDS011;51761;42.126;24.752;2024-01-30T10:06:41;22.80;;;9.93;;
65174;SDS011;51761;42.126;24.752;2024-01-30T10:09:07;25.38;;;9.43;;
65174;SDS011;51761;42.126;24.752;2024-01-30T10:11:33;22.92;;;10.23;;
65174;SDS011;51761;42.126;24.752;2024-01-30T10:13:59;21.05;;;9.48;;
65174;SDS011;51761;42.126;24.752;2024-01-30T10:16:25;19.38;;;9.93;;
65174;SDS011;51761;42.126;24.752;2024-01-30T10:18:50;20.05;;;9.18;;
65174;SDS011;51761;42.126;24.752;2024-01-30T10:21:16;23.70;;;9.98;;
65174;SDS011;51761;42.126;24.752;2024-01-30T10:23:43;16.73;;;8.68;;
65174;SDS011;51761;42.126;24.752;2024-01-30T10:26:08;20.48;;;9.20;;
65174;SDS011;51761;42.126;24.752;2024-01-30T10:28:33;23.50;;;11.07;;
65174;SDS011;51761;42.126;24.752;2024-01-30T10:31:02;19.13;;;9.30;;
65174;SDS011;51761;42.126;24.752;2024-01-30T10:33:30;29.38;;;12.27;;
65174;SDS011;51761;42.126;24.752;2024-01-30T10:36:02;27.00;;;9.65;;
65174;SDS011;51761;42.126;24.752;2024-01-30T10:38:29;22.05;;;8.35;;
65174;SDS011;51761;42.126;24.752;2024-01-30T10:40:59;19.52;;;8.10;;
65174;SDS011;51761;42.126;24.752;2024-01-30T10:43:35;18.55;;;8.38;;
65174;SDS011;51761;42.126;24.752;2024-01-30T10:46:10;16.10;;;7.50;;
65174;SDS011;51761;42.126;24.752;2024-01-30T10:48:42;9.05;;;5.45;;
65174;SDS011;51761;42.126;24.752;2024-01-30T10:51:09;11.57;;;6.65;;
65174;SDS011;51761;42.126;24.752;2024-01-30T10:53:34;12.40;;;6.28;;
65174;SDS011;51761;42.126;24.752;2024-01-30T10:56:01;14.20;;;6.10;;
65174;SDS011;51761;42.126;24.752;2024-01-30T10:58:26;19.50;;;9.52;;
65174;SDS011;51761;42.126;24.752;2024-01-30T11:00:52;22.58;;;7.53;;
65174;SDS011;51761;42.126;24.752;2024-01-30T11:03:17;9.82;;;6.38;;
65174;SDS011;51761;42.126;24.752;2024-01-30T11:05:48;22.02;;;7.30;;
65174;SDS011;51761;42.126;24.752;2024-01-30T11:08:13;9.90;;;5.75;;
65174;SDS011;51761;42.126;24.752;2024-01-30T11:10:48;14.23;;;6.57;;
65174;SDS011;51761;42.126;24.752;2024-01-30T11:13:13;13.20;;;6.70;;
65174;SDS011;51761;42.126;24.752;2024-01-30T11:15:39;11.70;;;6.53;;
65174;SDS011;51761;42.126;24.752;2024-01-30T11:18:05;15.00;;;7.22;;
65174;SDS011;51761;42.126;24.752;2024-01-30T11:20:31;17.45;;;7.78;;
65174;SDS011;51761;42.126;24.752;2024-01-30T11:22:56;20.08;;;7.07;;
65174;SDS011;51761;42.126;24.752;2024-01-30T11:25:22;17.27;;;6.80;;
65174;SDS011;51761;42.126;24.752;2024-01-30T11:27:52;30.98;;;6.25;;
65174;SDS011;51761;42.126;24.752;2024-01-30T11:30:27;11.90;;;5.93;;
65174;SDS011;51761;42.126;24.752;2024-01-30T11:33:06;14.95;;;7.03;;
65174;SDS011;51761;42.126;24.752;2024-01-30T11:35:35;15.52;;;6.50;;
65174;SDS011;51761;42.126;24.752;2024-01-30T11:38:00;10.43;;;6.38;;
65174;SDS011;51761;42.126;24.752;2024-01-30T11:40:30;17.30;;;6.50;;
65174;SDS011;51761;42.126;24.752;2024-01-30T11:42:56;7.93;;;4.70;;
65174;SDS011;51761;42.126;24.752;2024-01-30T11:45:21;17.75;;;9.13;;
65174;SDS011;51761;42.126;24.752;2024-01-30T11:47:47;13.60;;;6.63;;
65174;SDS011;51761;42.126;24.752;2024-01-30T11:50:12;10.80;;;6.13;;
65174;SDS011;51761;42.126;24.752;2024-01-30T11:52:38;11.52;;;5.38;;
65174;SDS011;51761;42.126;24.752;2024-01-30T11:55:03;17.65;;;7.25;;
65174;SDS011;51761;42.126;24.752;2024-01-30T11:57:29;14.25;;;6.60;;
65174;SDS011;51761;42.126;24.752;2024-01-30T11:59:55;6.07;;;3.75;;
65174;SDS011;51761;42.126;24.752;2024-01-30T12:02:21;6.05;;;4.07;;
65174;SDS011;51761;42.126;24.752;2024-01-30T12:04:46;12.05;;;4.40;;
65174;SDS011;51761;42.126;24.752;2024-01-30T12:07:11;7.47;;;4.13;;
65174;SDS011;51761;42.126;24.752;2024-01-30T12:09:38;7.97;;;3.83;;
65174;SDS011;51761;42.126;24.752;2024-01-30T12:12:03;6.60;;;3.80;;
65174;SDS011;51761;42.126;24.752;2024-01-30T12:14:30;6.45;;;3.80;;
65174;SDS011;51761;42.126;24.752;2024-01-30T12:16:56;8.93;;;4.45;;
65174;SDS011;51761;42.126;24.752;2024-01-30T12:19:25;11.20;;;4.78;;
65174;SDS011;51761;42.126;24.752;2024-01-30T12:21:53;7.05;;;4.15;;
65174;SDS011;51761;42.126;24.752;2024-01-30T12:24:19;10.23;;;5.60;;
65174;SDS011;51761;42.126;24.752;2024-01-30T12:26:44;8.15;;;4.18;;
65174;SDS011;51761;42.126;24.752;2024-01-30T12:29:09;13.98;;;4.63;;
65174;SDS011;51761;42.126;24.752;2024-01-30T12:31:35;8.75;;;4.22;;
65174;SDS011;51761;42.126;24.752;2024-01-30T12:34:00;6.97;;;4.60;;
65174;SDS011;51761;42.126;24.752;2024-01-30T12:36:26;10.43;;;4.20;;
65174;SDS011;51761;42.126;24.752;2024-01-30T12:38:51;6.72;;;4.15;;
65174;SDS011;51761;42.126;24.752;2024-01-30T12:41:17;9.95;;;4.43;;
65174;SDS011;51761;42.126;24.752;2024-01-30T12:43:42;9.55;;;4.40;;
65174;SDS011;51761;42.126;24.752;2024-01-30T12:46:08;10.23;;;5.00;;
65174;SDS011;51761;42.126;24.752;2024-01-30T12:48:33;7.35;;;4.60;;
65174;SDS011;51761;42.126;24.752;2024-01-30T12:50:58;8.60;;;4.70;;
65174;SDS011;51761;42.126;24.752;2024-01-30T12:53:24;5.45;;;3.97;;
65174;SDS011;51761;42.126;24.752;2024-01-30T12:55:49;12.38;;;5.53;;
65174;SDS011;51761;42.126;24.752;2024-01-30T12:58:15;10.65;;;4.32;;
65174;SDS011;51761;42.126;24.752;2024-01-30T13:00:40;8.82;;;5.15;;
65174;SDS011;51761;42.126;24.752;2024-01-30T13:03:07;7.57;;;4.78;;
65174;SDS011;51761;42.126;24.752;2024-01-30T13:05:33;11.70;;;5.05;;
65174;SDS011;51761;42.126;24.752;2024-01-30T13:07:58;9.75;;;5.53;;
65174;SDS011;51761;42.126;24.752;2024-01-30T13:10:24;10.02;;;5.97;;
65174;SDS011;51761;42.126;24.752;2024-01-30T13:12:49;9.75;;;4.93;;
65174;SDS011;51761;42.126;24.752;2024-01-30T13:15:14;13.02;;;5.88;;
65174;SDS011;51761;42.126;24.752;2024-01-30T13:17:40;11.40;;;5.60;;
65174;SDS011;51761;42.126;24.752;2024-01-30T13:20:07;9.18;;;4.95;;
65174;SDS011;51761;42.126;24.752;2024-01-30T13:22:33;14.60;;;5.18;;
65174;SDS011;51761;42.126;24.752;2024-01-30T13:24:58;10.60;;;6.05;;
65174;SDS011;51761;42.126;24.752;2024-01-30T13:27:24;11.95;;;5.35;;
65174;SDS011;51761;42.126;24.752;2024-01-30T13:29:49;10.55;;;4.25;;
65174;SDS011;51761;42.126;24.752;2024-01-30T13:32:14;15.95;;;5.70;;
65174;SDS011;51761;42.126;24.752;2024-01-30T13:34:40;14.02;;;4.95;;
65174;SDS011;51761;42.126;24.752;2024-01-30T13:37:06;8.38;;;4.70;;
65174;SDS011;51761;42.126;24.752;2024-01-30T13:39:31;10.98;;;5.47;;
65174;SDS011;51761;42.126;24.752;2024-01-30T13:41:56;9.68;;;5.38;;
65174;SDS011;51761;42.126;24.752;2024-01-30T13:44:22;9.88;;;5.13;;
65174;SDS011;51761;42.126;24.752;2024-01-30T13:46:47;11.13;;;5.00;;
65174;SDS011;51761;42.126;24.752;2024-01-30T13:49:12;11.52;;;5.57;;
65174;SDS011;51761;42.126;24.752;2024-01-30T13:51:38;7.25;;;4.25;;
65174;SDS011;51761;42.126;24.752;2024-01-30T13:54:03;11.95;;;4.47;;
65174;SDS011;51761;42.126;24.752;2024-01-30T13:56:28;11.63;;;4.55;;
65174;SDS011;51761;42.126;24.752;2024-01-30T13:58:55;14.75;;;4.68;;
65174;SDS011;51761;42.126;24.752;2024-01-30T14:01:21;14.60;;;4.38;;
65174;SDS011;51761;42.126;24.752;2024-01-30T14:03:47;9.40;;;4.93;;
65174;SDS011;51761;42.126;24.752;2024-01-30T14:06:12;9.27;;;4.22;;
65174;SDS011;51761;42.126;24.752;2024-01-30T14:08:38;6.82;;;4.18;;
65174;SDS011;51761;42.126;24.752;2024-01-30T14:11:03;8.50;;;4.22;;